sensor_id;sensor_type;location;lat;lon;timestamp;temperature;humidity
32536;DHT22;18974;50.838;4.636;2022-11-15T00:01:47;12.30;99.90
32536;DHT22;18974;50.838;4.636;2022-11-15T00:04:13;12.30;99.90
32536;DHT22;18974;50.838;4.636;2022-11-15T00:06:38;12.30;99.90
32536;DHT22;18974;50.838;4.636;2022-11-15T00:09:04;12.40;99.90
32536;DHT22;18974;50.838;4.636;2022-11-15T00:11:30;12.40;99.90
32536;DHT22;18974;50.838;4.636;2022-11-15T00:13:56;12.40;99.90
32536;DHT22;18974;50.838;4.636;2022-11-15T00:16:22;12.40;99.90
32536;DHT22;18974;50.838;4.636;2022-11-15T00:18:48;12.40;99.90
32536;DHT22;18974;50.838;4.636;2022-11-15T00:21:14;12.40;99.90
32536;DHT22;18974;50.838;4.636;2022-11-15T00:23:40;12.50;99.90
32536;DHT22;18974;50.838;4.636;2022-11-15T00:26:06;12.40;99.90
32536;DHT22;18974;50.838;4.636;2022-11-15T00:28:32;12.40;99.90
32536;DHT22;18974;50.838;4.636;2022-11-15T00:31:07;12.50;99.90
32536;DHT22;18974;50.838;4.636;2022-11-15T00:33:33;12.40;99.90
32536;DHT22;18974;50.838;4.636;2022-11-15T00:36:07;12.40;99.90
32536;DHT22;18974;50.838;4.636;2022-11-15T00:38:35;12.50;99.90
32536;DHT22;18974;50.838;4.636;2022-11-15T00:41:02;12.50;99.90
32536;DHT22;18974;50.838;4.636;2022-11-15T00:43:29;12.60;99.90
32536;DHT22;18974;50.838;4.636;2022-11-15T00:45:54;12.60;99.90
32536;DHT22;18974;50.838;4.636;2022-11-15T00:48:20;12.60;99.90
32536;DHT22;18974;50.838;4.636;2022-11-15T00:50:46;12.60;99.90
32536;DHT22;18974;50.838;4.636;2022-11-15T00:53:12;12.60;99.90
32536;DHT22;18974;50.838;4.636;2022-11-15T00:55:37;12.70;99.90
32536;DHT22;18974;50.838;4.636;2022-11-15T00:58:03;12.70;99.90
32536;DHT22;18974;50.838;4.636;2022-11-15T01:00:29;12.80;99.90
32536;DHT22;18974;50.838;4.636;2022-11-15T01:02:54;12.80;99.90
32536;DHT22;18974;50.838;4.636;2022-11-15T01:05:20;12.80;99.90
32536;DHT22;18974;50.838;4.636;2022-11-15T01:07:46;12.90;99.90
32536;DHT22;18974;50.838;4.636;2022-11-15T01:10:11;12.80;99.90
32536;DHT22;18974;50.838;4.636;2022-11-15T01:12:37;12.90;99.90
32536;DHT22;18974;50.838;4.636;2022-11-15T01:15:04;12.90;99.90
32536;DHT22;18974;50.838;4.636;2022-11-15T01:17:31;12.90;99.90
32536;DHT22;18974;50.838;4.636;2022-11-15T01:19:56;13.00;99.90
32536;DHT22;18974;50.838;4.636;2022-11-15T01:22:22;12.90;99.90
32536;DHT22;18974;50.838;4.636;2022-11-15T01:24:50;13.00;99.90
32536;DHT22;18974;50.838;4.636;2022-11-15T01:27:16;13.00;99.90
32536;DHT22;18974;50.838;4.636;2022-11-15T01:29:42;13.00;99.90
32536;DHT22;18974;50.838;4.636;2022-11-15T01:32:07;13.00;99.90
32536;DHT22;18974;50.838;4.636;2022-11-15T01:34:33;13.10;99.90
32536;DHT22;18974;50.838;4.636;2022-11-15T01:36:59;13.20;99.90
32536;DHT22;18974;50.838;4.636;2022-11-15T01:39:24;13.10;99.90
32536;DHT22;18974;50.838;4.636;2022-11-15T01:41:50;13.10;99.90
32536;DHT22;18974;50.838;4.636;2022-11-15T01:47:03;13.00;99.90
32536;DHT22;18974;50.838;4.636;2022-11-15T01:49:32;12.90;99.90
32536;DHT22;18974;50.838;4.636;2022-11-15T01:52:00;12.90;99.90
32536;DHT22;18974;50.838;4.636;2022-11-15T01:54:27;12.90;99.90
32536;DHT22;18974;50.838;4.636;2022-11-15T01:56:59;12.90;99.90
32536;DHT22;18974;50.838;4.636;2022-11-15T01:59:26;13.00;99.90
32536;DHT22;18974;50.838;4.636;2022-11-15T02:01:52;13.00;99.90
32536;DHT22;18974;50.838;4.636;2022-11-15T02:04:32;13.10;99.90
32536;DHT22;18974;50.838;4.636;2022-11-15T02:06:59;13.10;99.90
32536;DHT22;18974;50.838;4.636;2022-11-15T02:09:27;13.30;99.90
32536;DHT22;18974;50.838;4.636;2022-11-15T02:11:53;13.20;99.90
32536;DHT22;18974;50.838;4.636;2022-11-15T02:14:21;13.30;99.90
32536;DHT22;18974;50.838;4.636;2022-11-15T02:17:19;13.30;99.90
32536;DHT22;18974;50.838;4.636;2022-11-15T02:28:52;13.20;99.90
32536;DHT22;18974;50.838;4.636;2022-11-15T02:31:36;13.10;99.90
32536;DHT22;18974;50.838;4.636;2022-11-15T02:37:21;13.00;99.90
32536;DHT22;18974;50.838;4.636;2022-11-15T02:40:01;13.00;99.90
32536;DHT22;18974;50.838;4.636;2022-11-15T02:42:33;13.10;99.90
32536;DHT22;18974;50.838;4.636;2022-11-15T02:45:25;13.10;99.90
32536;DHT22;18974;50.838;4.636;2022-11-15T02:47:54;13.00;99.90
32536;DHT22;18974;50.838;4.636;2022-11-15T02:50:25;13.10;99.90
32536;DHT22;18974;50.838;4.636;2022-11-15T02:52:52;13.10;99.90
32536;DHT22;18974;50.838;4.636;2022-11-15T02:55:40;13.00;99.90
32536;DHT22;18974;50.838;4.636;2022-11-15T03:01:02;13.10;99.90
32536;DHT22;18974;50.838;4.636;2022-11-15T03:03:54;13.00;99.90
32536;DHT22;18974;50.838;4.636;2022-11-15T03:11:43;13.10;99.90
32536;DHT22;18974;50.838;4.636;2022-11-15T03:14:21;13.00;99.90
32536;DHT22;18974;50.838;4.636;2022-11-15T03:21:55;13.10;99.90
32536;DHT22;18974;50.838;4.636;2022-11-15T03:24:22;13.10;99.90
32536;DHT22;18974;50.838;4.636;2022-11-15T03:26:51;13.10;99.90
32536;DHT22;18974;50.838;4.636;2022-11-15T03:29:32;13.00;99.90
32536;DHT22;18974;50.838;4.636;2022-11-15T03:32:02;13.10;99.90
32536;DHT22;18974;50.838;4.636;2022-11-15T03:34:37;13.10;99.90
32536;DHT22;18974;50.838;4.636;2022-11-15T03:37:04;13.10;99.90
32536;DHT22;18974;50.838;4.636;2022-11-15T03:39:30;13.00;99.90
32536;DHT22;18974;50.838;4.636;2022-11-15T03:47:45;13.00;99.90
32536;DHT22;18974;50.838;4.636;2022-11-15T03:50:15;13.00;99.90
32536;DHT22;18974;50.838;4.636;2022-11-15T03:52:42;12.90;99.90
32536;DHT22;18974;50.838;4.636;2022-11-15T03:55:14;13.00;99.90
32536;DHT22;18974;50.838;4.636;2022-11-15T03:57:40;12.90;99.90
32536;DHT22;18974;50.838;4.636;2022-11-15T04:00:06;12.90;99.90
32536;DHT22;18974;50.838;4.636;2022-11-15T04:02:32;12.80;99.90
32536;DHT22;18974;50.838;4.636;2022-11-15T04:04:58;12.80;99.90
32536;DHT22;18974;50.838;4.636;2022-11-15T04:07:23;12.80;99.90
32536;DHT22;18974;50.838;4.636;2022-11-15T04:09:49;12.80;99.90
32536;DHT22;18974;50.838;4.636;2022-11-15T04:12:36;12.90;99.90
32536;DHT22;18974;50.838;4.636;2022-11-15T04:15:07;12.80;99.90
32536;DHT22;18974;50.838;4.636;2022-11-15T04:17:45;12.80;99.90
32536;DHT22;18974;50.838;4.636;2022-11-15T04:20:18;12.80;99.90
32536;DHT22;18974;50.838;4.636;2022-11-15T04:23:05;12.80;99.90
32536;DHT22;18974;50.838;4.636;2022-11-15T04:25:51;12.70;99.90
32536;DHT22;18974;50.838;4.636;2022-11-15T04:28:17;12.60;99.90
32536;DHT22;18974;50.838;4.636;2022-11-15T04:30:43;12.70;99.90
32536;DHT22;18974;50.838;4.636;2022-11-15T04:33:09;12.70;99.90
32536;DHT22;18974;50.838;4.636;2022-11-15T04:35:34;12.50;99.90
32536;DHT22;18974;50.838;4.636;2022-11-15T04:38:01;12.40;99.90
32536;DHT22;18974;50.838;4.636;2022-11-15T04:40:27;12.50;99.90
32536;DHT22;18974;50.838;4.636;2022-11-15T04:42:53;12.40;99.90
32536;DHT22;18974;50.838;4.636;2022-11-15T04:45:19;12.40;99.90
32536;DHT22;18974;50.838;4.636;2022-11-15T04:47:45;12.40;99.90
32536;DHT22;18974;50.838;4.636;2022-11-15T04:50:11;12.50;99.90
32536;DHT22;18974;50.838;4.636;2022-11-15T04:52:40;12.50;99.90
32536;DHT22;18974;50.838;4.636;2022-11-15T04:55:06;12.40;99.90
32536;DHT22;18974;50.838;4.636;2022-11-15T04:57:32;12.30;99.90
32536;DHT22;18974;50.838;4.636;2022-11-15T04:59:58;12.30;99.90
32536;DHT22;18974;50.838;4.636;2022-11-15T05:02:23;12.20;99.90
32536;DHT22;18974;50.838;4.636;2022-11-15T05:04:49;12.20;99.90
32536;DHT22;18974;50.838;4.636;2022-11-15T05:07:14;12.10;99.90
32536;DHT22;18974;50.838;4.636;2022-11-15T05:09:40;12.20;99.90
32536;DHT22;18974;50.838;4.636;2022-11-15T05:12:06;12.10;99.90
32536;DHT22;18974;50.838;4.636;2022-11-15T05:14:31;12.10;99.90
32536;DHT22;18974;50.838;4.636;2022-11-15T05:16:57;12.20;99.90
32536;DHT22;18974;50.838;4.636;2022-11-15T05:19:23;12.10;99.90
32536;DHT22;18974;50.838;4.636;2022-11-15T05:21:48;12.10;99.90
32536;DHT22;18974;50.838;4.636;2022-11-15T05:24:14;12.00;99.90
32536;DHT22;18974;50.838;4.636;2022-11-15T05:26:39;12.00;99.90
32536;DHT22;18974;50.838;4.636;2022-11-15T05:29:05;12.00;99.90
32536;DHT22;18974;50.838;4.636;2022-11-15T05:31:31;12.00;99.90
32536;DHT22;18974;50.838;4.636;2022-11-15T05:33:58;11.90;99.90
32536;DHT22;18974;50.838;4.636;2022-11-15T05:36:40;11.90;99.90
32536;DHT22;18974;50.838;4.636;2022-11-15T05:39:07;11.90;99.90
32536;DHT22;18974;50.838;4.636;2022-11-15T05:41:40;11.80;99.90
32536;DHT22;18974;50.838;4.636;2022-11-15T05:44:09;11.80;99.90
32536;DHT22;18974;50.838;4.636;2022-11-15T05:46:36;11.70;99.90
32536;DHT22;18974;50.838;4.636;2022-11-15T05:49:05;11.60;99.90
32536;DHT22;18974;50.838;4.636;2022-11-15T05:51:33;11.60;99.90
32536;DHT22;18974;50.838;4.636;2022-11-15T05:54:00;11.50;99.90
32536;DHT22;18974;50.838;4.636;2022-11-15T05:56:26;11.40;99.90
32536;DHT22;18974;50.838;4.636;2022-11-15T05:58:55;11.40;99.90
32536;DHT22;18974;50.838;4.636;2022-11-15T06:01:21;11.30;99.90
32536;DHT22;18974;50.838;4.636;2022-11-15T06:03:47;11.40;99.90
32536;DHT22;18974;50.838;4.636;2022-11-15T06:06:12;11.40;99.90
32536;DHT22;18974;50.838;4.636;2022-11-15T06:08:38;11.40;99.90
32536;DHT22;18974;50.838;4.636;2022-11-15T06:11:05;11.40;99.90
32536;DHT22;18974;50.838;4.636;2022-11-15T06:13:31;11.20;99.90
32536;DHT22;18974;50.838;4.636;2022-11-15T06:15:57;11.10;99.90
32536;DHT22;18974;50.838;4.636;2022-11-15T06:18:23;11.00;99.90
32536;DHT22;18974;50.838;4.636;2022-11-15T06:20:49;11.00;99.90
32536;DHT22;18974;50.838;4.636;2022-11-15T06:23:15;11.00;99.90
32536;DHT22;18974;50.838;4.636;2022-11-15T06:25:40;11.00;99.90
32536;DHT22;18974;50.838;4.636;2022-11-15T06:28:06;11.00;99.90
32536;DHT22;18974;50.838;4.636;2022-11-15T06:30:32;10.90;99.90
32536;DHT22;18974;50.838;4.636;2022-11-15T06:33:03;11.00;99.90
32536;DHT22;18974;50.838;4.636;2022-11-15T06:35:30;10.80;99.90
32536;DHT22;18974;50.838;4.636;2022-11-15T06:37:57;10.80;99.90
32536;DHT22;18974;50.838;4.636;2022-11-15T06:40:26;10.80;99.90
32536;DHT22;18974;50.838;4.636;2022-11-15T06:42:57;10.70;99.90
32536;DHT22;18974;50.838;4.636;2022-11-15T06:45:23;10.50;99.90
32536;DHT22;18974;50.838;4.636;2022-11-15T06:47:49;10.40;99.90
32536;DHT22;18974;50.838;4.636;2022-11-15T06:50:14;10.40;99.90
32536;DHT22;18974;50.838;4.636;2022-11-15T06:52:40;10.30;99.90
32536;DHT22;18974;50.838;4.636;2022-11-15T06:55:06;10.30;99.90
32536;DHT22;18974;50.838;4.636;2022-11-15T06:57:32;10.30;99.90
32536;DHT22;18974;50.838;4.636;2022-11-15T06:59:58;10.30;99.90
32536;DHT22;18974;50.838;4.636;2022-11-15T07:02:23;10.40;99.90
32536;DHT22;18974;50.838;4.636;2022-11-15T07:04:49;10.30;99.90
32536;DHT22;18974;50.838;4.636;2022-11-15T07:07:15;10.30;99.90
32536;DHT22;18974;50.838;4.636;2022-11-15T07:09:40;10.30;99.90
32536;DHT22;18974;50.838;4.636;2022-11-15T07:12:06;10.20;99.90
32536;DHT22;18974;50.838;4.636;2022-11-15T07:14:31;10.10;99.90
32536;DHT22;18974;50.838;4.636;2022-11-15T07:16:57;10.10;99.90
32536;DHT22;18974;50.838;4.636;2022-11-15T07:19:23;10.10;99.90
32536;DHT22;18974;50.838;4.636;2022-11-15T07:21:48;10.00;99.90
32536;DHT22;18974;50.838;4.636;2022-11-15T07:24:14;10.10;99.90
32536;DHT22;18974;50.838;4.636;2022-11-15T07:26:39;10.10;99.90
32536;DHT22;18974;50.838;4.636;2022-11-15T07:29:05;10.20;99.90
32536;DHT22;18974;50.838;4.636;2022-11-15T07:31:31;10.20;99.90
32536;DHT22;18974;50.838;4.636;2022-11-15T07:33:56;10.20;99.90
32536;DHT22;18974;50.838;4.636;2022-11-15T07:36:22;10.10;99.90
32536;DHT22;18974;50.838;4.636;2022-11-15T07:38:48;10.10;99.90
32536;DHT22;18974;50.838;4.636;2022-11-15T07:41:13;10.20;99.90
32536;DHT22;18974;50.838;4.636;2022-11-15T07:43:39;10.20;99.90
32536;DHT22;18974;50.838;4.636;2022-11-15T07:46:08;10.30;99.90
32536;DHT22;18974;50.838;4.636;2022-11-15T07:48:35;10.30;99.90
32536;DHT22;18974;50.838;4.636;2022-11-15T07:51:01;10.30;99.90
32536;DHT22;18974;50.838;4.636;2022-11-15T07:53:27;10.30;99.90
32536;DHT22;18974;50.838;4.636;2022-11-15T07:55:52;10.40;99.90
32536;DHT22;18974;50.838;4.636;2022-11-15T07:58:18;10.30;99.90
32536;DHT22;18974;50.838;4.636;2022-11-15T08:00:44;10.40;99.90
32536;DHT22;18974;50.838;4.636;2022-11-15T08:03:13;10.30;99.90
32536;DHT22;18974;50.838;4.636;2022-11-15T08:05:40;10.30;99.90
32536;DHT22;18974;50.838;4.636;2022-11-15T08:08:07;10.50;99.90
32536;DHT22;18974;50.838;4.636;2022-11-15T08:10:33;10.50;99.90
32536;DHT22;18974;50.838;4.636;2022-11-15T08:13:01;10.60;99.90
32536;DHT22;18974;50.838;4.636;2022-11-15T08:15:27;10.60;99.90
32536;DHT22;18974;50.838;4.636;2022-11-15T08:17:58;10.60;99.90
32536;DHT22;18974;50.838;4.636;2022-11-15T08:20:24;10.70;99.90
32536;DHT22;18974;50.838;4.636;2022-11-15T08:22:50;10.70;99.90
32536;DHT22;18974;50.838;4.636;2022-11-15T08:25:17;10.80;99.90
32536;DHT22;18974;50.838;4.636;2022-11-15T08:27:43;10.70;99.90
32536;DHT22;18974;50.838;4.636;2022-11-15T08:30:09;10.80;99.90
32536;DHT22;18974;50.838;4.636;2022-11-15T08:32:34;10.80;99.90
32536;DHT22;18974;50.838;4.636;2022-11-15T08:35:00;10.80;99.90
32536;DHT22;18974;50.838;4.636;2022-11-15T08:37:26;10.90;99.90
32536;DHT22;18974;50.838;4.636;2022-11-15T08:39:51;10.90;99.90
32536;DHT22;18974;50.838;4.636;2022-11-15T08:42:17;10.90;99.90
32536;DHT22;18974;50.838;4.636;2022-11-15T08:44:43;11.00;99.90
32536;DHT22;18974;50.838;4.636;2022-11-15T08:47:11;11.00;99.90
32536;DHT22;18974;50.838;4.636;2022-11-15T08:49:37;11.00;99.90
32536;DHT22;18974;50.838;4.636;2022-11-15T08:52:03;11.10;99.90
32536;DHT22;18974;50.838;4.636;2022-11-15T08:54:28;11.00;99.90
32536;DHT22;18974;50.838;4.636;2022-11-15T08:56:54;11.10;99.90
32536;DHT22;18974;50.838;4.636;2022-11-15T08:59:20;11.20;99.90
32536;DHT22;18974;50.838;4.636;2022-11-15T09:01:45;11.30;99.90
32536;DHT22;18974;50.838;4.636;2022-11-15T09:04:11;11.40;99.90
32536;DHT22;18974;50.838;4.636;2022-11-15T09:06:37;11.40;99.90
32536;DHT22;18974;50.838;4.636;2022-11-15T09:09:03;11.30;99.90
32536;DHT22;18974;50.838;4.636;2022-11-15T09:11:28;11.30;99.90
32536;DHT22;18974;50.838;4.636;2022-11-15T09:13:54;11.40;99.90
32536;DHT22;18974;50.838;4.636;2022-11-15T09:16:20;11.40;99.90
32536;DHT22;18974;50.838;4.636;2022-11-15T09:18:46;11.50;99.90
32536;DHT22;18974;50.838;4.636;2022-11-15T09:21:11;11.60;99.90
32536;DHT22;18974;50.838;4.636;2022-11-15T09:23:37;11.70;99.90
32536;DHT22;18974;50.838;4.636;2022-11-15T09:26:04;11.70;99.90
32536;DHT22;18974;50.838;4.636;2022-11-15T09:28:30;11.70;99.90
32536;DHT22;18974;50.838;4.636;2022-11-15T09:31:01;11.70;99.90
32536;DHT22;18974;50.838;4.636;2022-11-15T09:33:27;11.60;99.90
32536;DHT22;18974;50.838;4.636;2022-11-15T09:35:53;11.60;99.90
32536;DHT22;18974;50.838;4.636;2022-11-15T09:38:19;11.70;99.90
32536;DHT22;18974;50.838;4.636;2022-11-15T09:40:48;11.80;99.90
32536;DHT22;18974;50.838;4.636;2022-11-15T09:46:12;11.90;99.90
32536;DHT22;18974;50.838;4.636;2022-11-15T09:48:57;12.00;99.90
32536;DHT22;18974;50.838;4.636;2022-11-15T09:56:36;12.20;99.90
32536;DHT22;18974;50.838;4.636;2022-11-15T10:04:33;12.30;99.90
32536;DHT22;18974;50.838;4.636;2022-11-15T10:07:12;12.20;99.90
32536;DHT22;18974;50.838;4.636;2022-11-15T10:12:11;12.40;99.90
32536;DHT22;18974;50.838;4.636;2022-11-15T10:14:38;12.50;99.90
32536;DHT22;18974;50.838;4.636;2022-11-15T10:17:21;12.40;99.90
32536;DHT22;18974;50.838;4.636;2022-11-15T10:22:52;12.50;99.90
32536;DHT22;18974;50.838;4.636;2022-11-15T10:25:19;12.60;99.90
32536;DHT22;18974;50.838;4.636;2022-11-15T10:27:52;12.50;99.90
32536;DHT22;18974;50.838;4.636;2022-11-15T10:30:19;12.40;99.90
32536;DHT22;18974;50.838;4.636;2022-11-15T10:32:46;12.40;99.90
32536;DHT22;18974;50.838;4.636;2022-11-15T10:35:24;12.50;99.90
32536;DHT22;18974;50.838;4.636;2022-11-15T10:37:50;12.60;99.90
32536;DHT22;18974;50.838;4.636;2022-11-15T10:40:23;12.70;99.90
32536;DHT22;18974;50.838;4.636;2022-11-15T10:43:18;12.80;99.90
32536;DHT22;18974;50.838;4.636;2022-11-15T10:45:45;13.00;99.90
32536;DHT22;18974;50.838;4.636;2022-11-15T10:50:44;13.20;99.90
32536;DHT22;18974;50.838;4.636;2022-11-15T10:53:24;13.20;99.90
32536;DHT22;18974;50.838;4.636;2022-11-15T10:55:56;13.40;99.90
32536;DHT22;18974;50.838;4.636;2022-11-15T10:58:36;13.40;99.90
32536;DHT22;18974;50.838;4.636;2022-11-15T11:01:12;13.50;99.90
32536;DHT22;18974;50.838;4.636;2022-11-15T11:03:39;13.50;99.90
32536;DHT22;18974;50.838;4.636;2022-11-15T11:06:07;13.60;99.90
32536;DHT22;18974;50.838;4.636;2022-11-15T11:08:33;13.80;99.90
32536;DHT22;18974;50.838;4.636;2022-11-15T11:11:01;13.90;99.90
32536;DHT22;18974;50.838;4.636;2022-11-15T11:13:33;14.00;99.90
32536;DHT22;18974;50.838;4.636;2022-11-15T11:19:13;13.80;99.90
32536;DHT22;18974;50.838;4.636;2022-11-15T11:21:53;13.60;99.90
32536;DHT22;18974;50.838;4.636;2022-11-15T11:24:34;13.60;99.90
32536;DHT22;18974;50.838;4.636;2022-11-15T11:27:08;13.60;99.90
32536;DHT22;18974;50.838;4.636;2022-11-15T11:35:19;13.80;99.90
32536;DHT22;18974;50.838;4.636;2022-11-15T11:40:43;14.00;99.90
32536;DHT22;18974;50.838;4.636;2022-11-15T11:43:19;14.10;99.90
32536;DHT22;18974;50.838;4.636;2022-11-15T11:45:58;14.20;99.90
32536;DHT22;18974;50.838;4.636;2022-11-15T11:51:16;14.20;99.90
32536;DHT22;18974;50.838;4.636;2022-11-15T11:53:49;14.10;99.90
32536;DHT22;18974;50.838;4.636;2022-11-15T11:56:27;14.10;99.90
32536;DHT22;18974;50.838;4.636;2022-11-15T11:58:55;14.20;99.90
32536;DHT22;18974;50.838;4.636;2022-11-15T12:01:30;14.20;99.90
32536;DHT22;18974;50.838;4.636;2022-11-15T12:04:08;14.10;99.90
32536;DHT22;18974;50.838;4.636;2022-11-15T12:06:40;14.20;99.90
32536;DHT22;18974;50.838;4.636;2022-11-15T12:09:28;14.20;99.90
32536;DHT22;18974;50.838;4.636;2022-11-15T12:12:24;14.30;99.90
32536;DHT22;18974;50.838;4.636;2022-11-15T12:17:35;14.30;99.90
32536;DHT22;18974;50.838;4.636;2022-11-15T12:20:17;14.20;99.90
32536;DHT22;18974;50.838;4.636;2022-11-15T12:22:49;14.20;99.90
32536;DHT22;18974;50.838;4.636;2022-11-15T12:28:53;14.20;99.90
32536;DHT22;18974;50.838;4.636;2022-11-15T12:31:40;14.10;99.90
32536;DHT22;18974;50.838;4.636;2022-11-15T12:36:58;14.10;99.90
32536;DHT22;18974;50.838;4.636;2022-11-15T12:44:59;14.20;99.90
32536;DHT22;18974;50.838;4.636;2022-11-15T12:47:26;14.20;99.90
32536;DHT22;18974;50.838;4.636;2022-11-15T12:49:52;14.20;99.90
32536;DHT22;18974;50.838;4.636;2022-11-15T12:52:18;14.20;99.90
32536;DHT22;18974;50.838;4.636;2022-11-15T12:54:58;14.10;99.90
32536;DHT22;18974;50.838;4.636;2022-11-15T12:57:32;14.20;99.90
32536;DHT22;18974;50.838;4.636;2022-11-15T13:02:39;14.50;99.90
32536;DHT22;18974;50.838;4.636;2022-11-15T13:17:46;14.90;99.90
32536;DHT22;18974;50.838;4.636;2022-11-15T13:23:00;15.20;99.90
32536;DHT22;18974;50.838;4.636;2022-11-15T13:28:31;15.40;99.90
32536;DHT22;18974;50.838;4.636;2022-11-15T13:30:59;15.20;99.90
32536;DHT22;18974;50.838;4.636;2022-11-15T13:33:34;15.20;99.90
32536;DHT22;18974;50.838;4.636;2022-11-15T13:38:36;15.10;99.90
32536;DHT22;18974;50.838;4.636;2022-11-15T13:43:44;15.00;99.90
32536;DHT22;18974;50.838;4.636;2022-11-15T13:46:11;15.00;99.90
32536;DHT22;18974;50.838;4.636;2022-11-15T13:48:38;15.00;99.90
32536;DHT22;18974;50.838;4.636;2022-11-15T13:51:13;14.90;99.90
32536;DHT22;18974;50.838;4.636;2022-11-15T13:53:43;14.90;99.90
32536;DHT22;18974;50.838;4.636;2022-11-15T13:56:12;14.90;99.90
32536;DHT22;18974;50.838;4.636;2022-11-15T13:58:38;14.90;99.90
32536;DHT22;18974;50.838;4.636;2022-11-15T14:01:05;14.90;99.90
32536;DHT22;18974;50.838;4.636;2022-11-15T14:03:35;14.80;99.90
32536;DHT22;18974;50.838;4.636;2022-11-15T14:06:17;14.90;99.90
32536;DHT22;18974;50.838;4.636;2022-11-15T14:11:34;15.00;99.90
32536;DHT22;18974;50.838;4.636;2022-11-15T14:14:11;14.90;99.90
32536;DHT22;18974;50.838;4.636;2022-11-15T14:16:41;15.00;99.90
32536;DHT22;18974;50.838;4.636;2022-11-15T14:19:11;15.00;99.90
32536;DHT22;18974;50.838;4.636;2022-11-15T14:21:37;14.90;99.90
32536;DHT22;18974;50.838;4.636;2022-11-15T14:24:17;14.80;99.90
32536;DHT22;18974;50.838;4.636;2022-11-15T14:26:43;14.80;99.90
32536;DHT22;18974;50.838;4.636;2022-11-15T14:29:26;14.60;99.90
32536;DHT22;18974;50.838;4.636;2022-11-15T14:31:53;14.50;99.90
32536;DHT22;18974;50.838;4.636;2022-11-15T14:34:20;14.40;99.90
32536;DHT22;18974;50.838;4.636;2022-11-15T14:36:47;14.30;99.90
32536;DHT22;18974;50.838;4.636;2022-11-15T14:39:13;14.20;99.90
32536;DHT22;18974;50.838;4.636;2022-11-15T14:41:39;14.20;99.90
32536;DHT22;18974;50.838;4.636;2022-11-15T14:44:05;14.10;99.90
32536;DHT22;18974;50.838;4.636;2022-11-15T14:46:31;14.10;99.90
32536;DHT22;18974;50.838;4.636;2022-11-15T14:48:57;14.10;99.90
32536;DHT22;18974;50.838;4.636;2022-11-15T14:51:22;14.10;99.90
32536;DHT22;18974;50.838;4.636;2022-11-15T14:53:48;14.10;99.90
32536;DHT22;18974;50.838;4.636;2022-11-15T14:56:14;14.00;99.90
32536;DHT22;18974;50.838;4.636;2022-11-15T14:58:41;14.00;99.90
32536;DHT22;18974;50.838;4.636;2022-11-15T15:01:14;13.90;99.90
32536;DHT22;18974;50.838;4.636;2022-11-15T15:03:41;13.90;99.90
32536;DHT22;18974;50.838;4.636;2022-11-15T15:06:09;13.90;99.90
32536;DHT22;18974;50.838;4.636;2022-11-15T15:08:35;13.90;99.90
32536;DHT22;18974;50.838;4.636;2022-11-15T15:11:00;13.80;99.90
32536;DHT22;18974;50.838;4.636;2022-11-15T15:13:27;13.70;99.90
32536;DHT22;18974;50.838;4.636;2022-11-15T15:15:55;13.70;99.90
32536;DHT22;18974;50.838;4.636;2022-11-15T15:18:21;13.60;99.90
32536;DHT22;18974;50.838;4.636;2022-11-15T15:20:53;13.70;99.90
32536;DHT22;18974;50.838;4.636;2022-11-15T15:23:20;13.50;99.90
32536;DHT22;18974;50.838;4.636;2022-11-15T15:25:47;13.50;99.90
32536;DHT22;18974;50.838;4.636;2022-11-15T15:28:14;13.50;99.90
32536;DHT22;18974;50.838;4.636;2022-11-15T15:30:40;13.60;99.90
32536;DHT22;18974;50.838;4.636;2022-11-15T15:33:05;13.50;99.90
32536;DHT22;18974;50.838;4.636;2022-11-15T15:35:35;13.60;99.90
32536;DHT22;18974;50.838;4.636;2022-11-15T15:38:01;13.50;99.90
32536;DHT22;18974;50.838;4.636;2022-11-15T15:40:28;13.50;99.90
32536;DHT22;18974;50.838;4.636;2022-11-15T15:42:54;13.40;99.90
32536;DHT22;18974;50.838;4.636;2022-11-15T15:45:20;13.40;99.90
32536;DHT22;18974;50.838;4.636;2022-11-15T15:47:46;13.40;99.90
32536;DHT22;18974;50.838;4.636;2022-11-15T15:50:15;13.40;99.90
32536;DHT22;18974;50.838;4.636;2022-11-15T15:52:42;13.30;99.90
32536;DHT22;18974;50.838;4.636;2022-11-15T15:55:07;13.30;99.90
32536;DHT22;18974;50.838;4.636;2022-11-15T15:57:34;13.30;99.90
32536;DHT22;18974;50.838;4.636;2022-11-15T15:59:59;13.20;99.90
32536;DHT22;18974;50.838;4.636;2022-11-15T16:02:25;13.10;99.90
32536;DHT22;18974;50.838;4.636;2022-11-15T16:04:50;13.10;99.90
32536;DHT22;18974;50.838;4.636;2022-11-15T16:07:21;13.10;99.90
32536;DHT22;18974;50.838;4.636;2022-11-15T16:09:49;13.10;99.90
32536;DHT22;18974;50.838;4.636;2022-11-15T16:12:33;13.00;99.90
32536;DHT22;18974;50.838;4.636;2022-11-15T16:14:59;13.10;99.90
32536;DHT22;18974;50.838;4.636;2022-11-15T16:17:29;13.10;99.90
32536;DHT22;18974;50.838;4.636;2022-11-15T16:19:55;13.10;99.90
32536;DHT22;18974;50.838;4.636;2022-11-15T16:22:21;13.10;99.90
32536;DHT22;18974;50.838;4.636;2022-11-15T16:24:47;13.10;99.90
32536;DHT22;18974;50.838;4.636;2022-11-15T16:27:18;13.10;99.90
32536;DHT22;18974;50.838;4.636;2022-11-15T16:29:45;13.10;99.90
32536;DHT22;18974;50.838;4.636;2022-11-15T16:32:12;13.10;99.90
32536;DHT22;18974;50.838;4.636;2022-11-15T16:34:38;13.10;99.90
32536;DHT22;18974;50.838;4.636;2022-11-15T16:37:04;13.20;99.90
32536;DHT22;18974;50.838;4.636;2022-11-15T16:39:30;13.10;99.90
32536;DHT22;18974;50.838;4.636;2022-11-15T16:41:57;13.10;99.90
32536;DHT22;18974;50.838;4.636;2022-11-15T16:44:23;13.10;99.90
32536;DHT22;18974;50.838;4.636;2022-11-15T16:46:49;13.00;99.90
32536;DHT22;18974;50.838;4.636;2022-11-15T16:49:19;13.00;99.90
32536;DHT22;18974;50.838;4.636;2022-11-15T16:51:49;13.10;99.90
32536;DHT22;18974;50.838;4.636;2022-11-15T16:54:15;13.00;99.90
32536;DHT22;18974;50.838;4.636;2022-11-15T16:56:41;13.00;99.90
32536;DHT22;18974;50.838;4.636;2022-11-15T16:59:10;13.00;99.90
32536;DHT22;18974;50.838;4.636;2022-11-15T17:01:38;13.00;99.90
32536;DHT22;18974;50.838;4.636;2022-11-15T17:04:12;13.10;99.90
32536;DHT22;18974;50.838;4.636;2022-11-15T17:06:42;13.10;99.90
32536;DHT22;18974;50.838;4.636;2022-11-15T17:09:19;13.20;99.90
32536;DHT22;18974;50.838;4.636;2022-11-15T17:11:45;13.10;99.90
32536;DHT22;18974;50.838;4.636;2022-11-15T17:14:11;13.00;99.90
32536;DHT22;18974;50.838;4.636;2022-11-15T17:16:37;13.00;99.90
32536;DHT22;18974;50.838;4.636;2022-11-15T17:19:14;13.00;99.90
32536;DHT22;18974;50.838;4.636;2022-11-15T17:21:42;13.10;99.90
32536;DHT22;18974;50.838;4.636;2022-11-15T17:24:08;13.10;99.90
32536;DHT22;18974;50.838;4.636;2022-11-15T17:26:34;13.00;99.90
32536;DHT22;18974;50.838;4.636;2022-11-15T17:28:59;13.20;99.90
32536;DHT22;18974;50.838;4.636;2022-11-15T17:31:25;13.10;99.90
32536;DHT22;18974;50.838;4.636;2022-11-15T17:33:51;13.10;99.90